Time;durP1;ratioP1;P1;durP2;ratioP2;P2;SDS_P1;SDS_P2;PMS_P1;PMS_P2;Temp;Humidity;BMP_temperature;BMP_pressure;BME280_temperature;BME280_humidity;BME280_pressure;Samples;Min_cycle;Max_cycle;Signal;HPM_P1;HPM_P2
2022/09/25 00:00:45;;;;;;;4.40;2.00;;;;;;;9.77;100.00;101624.50;5073432;28;20028;-69
2022/09/25 00:03:12;;;;;;;10.82;2.63;;;;;;;9.73;100.00;101623.50;5074726;28;20060;-69
2022/09/25 00:05:40;;;;;;;4.35;2.35;;;;;;;9.73;100.00;101634.03;5072198;28;20055;-69
2022/09/25 00:08:06;;;;;;;8.77;2.38;;;;;;;9.71;100.00;101635.72;5072442;28;20021;-70
2022/09/25 00:10:32;;;;;;;5.82;2.47;;;;;;;9.77;100.00;101640.28;5074370;28;20052;-70
2022/09/25 00:12:57;;;;;;;3.88;1.92;;;;;;;9.72;100.00;101640.09;5070576;28;20024;-69
2022/09/25 00:15:23;;;;;;;5.10;2.05;;;;;;;9.74;100.00;101635.81;5073950;28;20107;-69
2022/09/25 00:17:49;;;;;;;4.53;2.30;;;;;;;9.73;100.00;101638.41;5070850;28;20601;-69
2022/09/25 00:20:16;;;;;;;5.13;1.98;;;;;;;9.70;100.00;101636.56;5059079;28;20085;-69
2022/09/25 00:22:41;;;;;;;6.57;2.30;;;;;;;9.67;100.00;101641.72;5070424;28;20478;-69
2022/09/25 00:25:14;;;;;;;6.70;2.15;;;;;;;9.65;100.00;101643.38;5069915;28;20033;-69
2022/09/25 00:27:40;;;;;;;10.38;2.30;;;;;;;9.66;100.00;101642.56;5068572;28;20033;-69
2022/09/25 00:30:07;;;;;;;8.45;2.20;;;;;;;9.63;100.00;101642.47;5064137;28;20028;-69
2022/09/25 00:32:33;;;;;;;7.70;2.30;;;;;;;9.64;100.00;101638.09;5067878;28;20388;-69
2022/09/25 00:34:58;;;;;;;8.88;2.40;;;;;;;9.61;100.00;101639.75;5067909;28;20029;-68
2022/09/25 00:37:24;;;;;;;7.72;2.40;;;;;;;9.61;100.00;101641.50;5070573;28;20034;-69
2022/09/25 00:39:50;;;;;;;8.70;1.83;;;;;;;9.58;100.00;101630.91;5070461;28;20024;-69
2022/09/25 00:42:19;;;;;;;7.20;2.17;;;;;;;9.57;100.00;101626.47;5072056;28;20047;-70
2022/09/25 00:44:59;;;;;;;4.07;1.77;;;;;;;9.55;100.00;101631.69;5038032;28;20025;-69
2022/09/25 00:47:40;;;;;;;7.43;2.25;;;;;;;9.55;100.00;101626.44;5074793;28;20468;-69
2022/09/25 00:50:26;;;;;;;6.63;2.17;;;;;;;9.56;100.00;101632.56;5074385;28;20108;-69
2022/09/25 00:52:56;;;;;;;6.43;2.30;;;;;;;9.51;100.00;101621.91;5053818;28;20025;-69
2022/09/25 00:55:25;;;;;;;5.45;2.30;;;;;;;9.51;100.00;101632.44;5073708;28;20036;-69
2022/09/25 00:57:55;;;;;;;4.78;2.17;;;;;;;9.48;100.00;101626.16;5072330;28;20017;-69
2022/09/25 01:00:20;;;;;;;6.88;1.98;;;;;;;9.44;100.00;101620.81;5073695;28;20028;-69
2022/09/25 01:02:52;;;;;;;8.85;2.60;;;;;;;9.40;100.00;101637.31;5058733;28;20506;-69
2022/09/25 01:05:21;;;;;;;4.18;1.95;;;;;;;9.36;100.00;101627.53;5073306;28;20102;-69
2022/09/25 01:07:48;;;;;;;3.97;2.00;;;;;;;9.34;100.00;101631.84;5074163;28;20040;-69
2022/09/25 01:10:16;;;;;;;9.57;2.30;;;;;;;9.31;100.00;101629.13;5073923;28;20045;-69
2022/09/25 01:12:45;;;;;;;6.30;2.42;;;;;;;9.35;100.00;101632.75;5069849;28;20032;-69
2022/09/25 01:15:12;;;;;;;8.93;2.70;;;;;;;9.32;100.00;101625.66;5064839;28;20039;-69
2022/09/25 01:18:23;;;;;;;8.63;2.50;;;;;;;9.31;100.00;101631.75;5073909;28;20444;-69
2022/09/25 01:21:04;;;;;;;8.90;2.65;;;;;;;9.30;100.00;101629.06;5043566;28;20050;-68
2022/09/25 01:23:47;;;;;;;3.65;2.63;;;;;;;9.25;100.00;101635.06;5066537;28;20037;-68
2022/09/25 01:26:22;;;;;;;7.78;2.15;;;;;;;9.22;100.00;101634.03;5073237;28;20021;-69
2022/09/25 01:29:23;;;;;;;4.57;2.17;;;;;;;9.20;100.00;101633.13;5055222;28;20071;-70
2022/09/25 01:32:09;;;;;;;7.28;1.90;;;;;;;9.15;100.00;101632.06;5066738;28;20068;-69
2022/09/25 01:34:56;;;;;;;5.32;2.20;;;;;;;9.11;100.00;101628.41;5073655;28;20422;-69
2022/09/25 01:37:47;;;;;;;3.78;2.15;;;;;;;9.07;100.00;101632.66;5064744;28;20028;-69
2022/09/25 01:40:34;;;;;;;12.50;3.28;;;;;;;9.04;100.00;101639.56;5069704;28;20482;-69
2022/09/25 01:43:11;;;;;;;2.63;1.95;;;;;;;9.01;100.00;101632.44;5069080;28;20033;-68
2022/09/25 01:45:43;;;;;;;3.60;2.08;;;;;;;9.02;100.00;101634.25;5072937;28;20033;-68
2022/09/25 01:48:12;;;;;;;5.93;2.20;;;;;;;9.01;100.00;101635.09;5073507;28;20364;-68
2022/09/25 01:51:00;;;;;;;3.85;2.28;;;;;;;9.02;100.00;101635.97;5070426;28;20020;-69
2022/09/25 01:53:31;;;;;;;5.90;2.00;;;;;;;9.02;100.00;101631.63;5064200;28;20040;-69
2022/09/25 01:56:01;;;;;;;5.45;2.83;;;;;;;9.06;100.00;101636.16;5063992;28;20031;-68
2022/09/25 01:58:40;;;;;;;5.20;2.53;;;;;;;9.10;100.00;101632.78;5064935;28;20036;-69
2022/09/25 02:01:14;;;;;;;7.82;2.25;;;;;;;9.14;100.00;101631.13;5072482;28;20365;-69
2022/09/25 02:03:51;;;;;;;7.80;2.75;;;;;;;9.23;100.00;101635.84;5064639;28;20119;-69
2022/09/25 02:06:19;;;;;;;4.10;2.30;;;;;;;9.25;100.00;101629.81;5072239;28;20365;-69
2022/09/25 02:08:56;;;;;;;5.53;2.20;;;;;;;9.37;100.00;101638.94;5056165;28;20024;-69
2022/09/25 02:11:27;;;;;;;5.07;2.38;;;;;;;9.41;100.00;101631.22;5057048;28;20412;-69
2022/09/25 02:13:58;;;;;;;6.32;2.95;;;;;;;9.43;100.00;101624.28;5028770;28;20380;-70
2022/09/25 02:16:42;;;;;;;5.55;2.78;;;;;;;9.49;100.00;101626.22;5051000;28;20429;-69
2022/09/25 02:22:04;;;;;;;9.25;2.72;;;;;;;9.66;100.00;101626.78;5052458;28;20385;-68
2022/09/25 02:24:38;;;;;;;11.85;2.80;;;;;;;9.67;100.00;101620.69;5051579;28;20029;-69
2022/09/25 02:27:03;;;;;;;4.00;2.40;;;;;;;9.72;100.00;101620.84;5051051;28;20376;-69
2022/09/25 02:29:29;;;;;;;9.45;3.13;;;;;;;9.73;100.00;101623.50;5051121;28;20040;-69
2022/09/25 02:32:01;;;;;;;11.43;3.55;;;;;;;9.77;100.00;101624.50;5052362;28;20449;-69
2022/09/25 02:34:27;;;;;;;9.85;3.10;;;;;;;9.79;100.00;101628.97;5051909;28;20037;-69
2022/09/25 02:36:52;;;;;;;5.30;2.70;;;;;;;9.81;100.00;101630.72;5052082;28;20048;-68
2022/09/25 02:39:21;;;;;;;6.20;2.65;;;;;;;9.84;100.00;101633.50;5050859;28;20036;-68
2022/09/25 02:41:59;;;;;;;6.20;2.80;;;;;;;9.86;100.00;101632.69;5052111;28;20385;-68
2022/09/25 02:44:51;;;;;;;7.85;2.55;;;;;;;9.88;100.00;101641.50;5051401;28;20104;-68
2022/09/25 02:47:35;;;;;;;3.72;2.75;;;;;;;9.92;100.00;101634.63;5051803;28;20021;-68
2022/09/25 02:50:19;;;;;;;7.15;3.83;;;;;;;9.96;100.00;101628.63;5048152;28;20458;-69
2022/09/25 02:53:03;;;;;;;4.63;2.83;;;;;;;9.98;100.00;101633.91;5051467;28;20468;-69
2022/09/25 02:55:58;;;;;;;8.45;3.10;;;;;;;10.04;100.00;101629.75;5051889;28;20509;-68
2022/09/25 02:58:26;;;;;;;8.90;2.92;;;;;;;10.12;100.00;101633.50;5050101;28;20051;-69
2022/09/25 03:00:54;;;;;;;7.25;3.30;;;;;;;10.13;100.00;101637.03;5050732;28;20535;-69
2022/09/25 03:03:23;;;;;;;6.05;2.80;;;;;;;10.19;100.00;101641.59;5052081;28;20029;-69
2022/09/25 03:05:51;;;;;;;7.10;3.20;;;;;;;10.21;100.00;101634.63;5051389;28;20024;-69
2022/09/25 03:08:37;;;;;;;4.20;2.90;;;;;;;10.24;100.00;101639.97;5027646;28;20369;-69
2022/09/25 03:11:25;;;;;;;11.65;3.33;;;;;;;10.32;100.00;101646.38;5056807;28;20044;-69
2022/09/25 03:14:02;;;;;;;5.68;3.10;;;;;;;10.33;100.00;101645.53;5061241;28;20025;-69
2022/09/25 03:16:35;;;;;;;10.02;2.28;;;;;;;10.37;100.00;101650.06;5056392;28;20037;-69
2022/09/25 03:19:01;;;;;;;;;;;;;;;10.39;100.00;101650.13;5060809;28;20525;-69
2022/09/25 03:21:27;;;;;;;7.43;1.52;;;;;;;10.42;100.00;101640.59;5060577;28;19999;-69
2022/09/25 03:23:55;;;;;;;3.83;1.80;;;;;;;10.48;100.00;101631.09;5037268;28;20503;-69
2022/09/25 03:26:20;;;;;;;2.95;1.73;;;;;;;10.50;100.00;101618.84;5063856;28;20038;-69
2022/09/25 03:28:46;;;;;;;3.67;1.50;;;;;;;10.53;100.00;101621.59;5061524;28;20021;-69
2022/09/25 03:31:11;;;;;;;10.88;1.83;;;;;;;10.54;100.00;101626.00;5056505;28;20016;-69
2022/09/25 03:33:39;;;;;;;8.27;1.83;;;;;;;10.57;100.00;101627.00;5057055;28;20473;-69
2022/09/25 03:36:11;;;;;;;6.50;1.80;;;;;;;10.59;100.00;101621.75;5064998;28;20427;-69
2022/09/25 03:38:37;;;;;;;7.57;1.58;;;;;;;10.60;100.00;101618.28;5067455;28;20484;-69
2022/09/25 03:41:05;;;;;;;4.45;1.60;;;;;;;10.62;100.00;101613.94;5064961;28;20024;-69
2022/09/25 03:43:32;;;;;;;3.40;1.42;;;;;;;10.63;100.00;101613.09;5064398;28;20106;-69
2022/09/25 03:45:57;;;;;;;10.23;2.78;;;;;;;10.62;100.00;101613.94;5069159;28;20025;-69
2022/09/25 03:48:23;;;;;;;4.45;1.52;;;;;;;10.58;100.00;101615.63;5056063;28;20017;-69
2022/09/25 03:50:49;;;;;;;6.70;1.50;;;;;;;10.54;100.00;101607.56;5064408;28;20031;-69
2022/09/25 03:53:14;;;;;;;6.88;1.77;;;;;;;10.53;100.00;101618.97;5055156;28;20371;-69
2022/09/25 03:55:40;;;;;;;5.57;1.33;;;;;;;10.50;100.00;101613.59;5068513;28;20021;-69
2022/09/25 03:58:05;;;;;;;3.58;1.88;;;;;;;10.42;100.00;101606.38;5068816;28;20032;-69
2022/09/25 04:00:30;;;;;;;8.07;1.80;;;;;;;10.36;100.00;101610.56;5064817;28;20483;-69
2022/09/25 04:02:58;;;;;;;2.97;1.38;;;;;;;10.28;100.00;101611.22;5063574;28;20028;-69
2022/09/25 04:05:23;;;;;;;7.13;1.83;;;;;;;10.25;100.00;101618.09;5060378;28;20452;-69
2022/09/25 04:07:49;;;;;;;6.70;1.92;;;;;;;10.19;100.00;101610.03;5058258;28;20099;-69
2022/09/25 04:10:14;;;;;;;4.95;1.77;;;;;;;10.19;100.00;101617.94;5059160;28;20064;-69
2022/09/25 04:12:42;;;;;;;5.63;2.03;;;;;;;10.16;100.00;101612.56;5074168;28;20499;-68
2022/09/25 04:15:08;;;;;;;2.83;1.70;;;;;;;10.13;100.00;101611.63;5074512;28;20025;-68
2022/09/25 04:17:34;;;;;;;9.55;2.30;;;;;;;10.12;100.00;101601.94;5074512;28;20376;-68
2022/09/25 04:20:00;;;;;;;8.85;2.45;;;;;;;10.11;100.00;101605.41;5074464;28;20024;-68
2022/09/25 04:22:25;;;;;;;9.70;2.40;;;;;;;10.13;100.00;101606.38;5073466;28;20068;-69
2022/09/25 04:24:51;;;;;;;8.02;2.70;;;;;;;10.11;100.00;101599.28;5074363;28;20020;-69
2022/09/25 04:27:20;;;;;;;3.92;2.35;;;;;;;10.08;100.00;101597.44;5074393;28;20107;-69
2022/09/25 04:29:46;;;;;;;4.65;2.00;;;;;;;10.06;100.00;101595.59;5075039;28;20020;-68
2022/09/25 04:34:57;;;;;;;7.65;2.60;;;;;;;9.91;100.00;101590.78;5069902;28;20040;-69
2022/09/25 04:37:25;;;;;;;11.63;2.33;;;;;;;9.83;100.00;101587.88;5074213;28;20377;-68
2022/09/25 04:39:52;;;;;;;7.63;2.75;;;;;;;9.76;100.00;101591.19;5074457;28;20028;-68
2022/09/25 04:42:22;;;;;;;7.97;2.22;;;;;;;9.70;100.00;101591.88;5073744;28;20483;-69
2022/09/25 04:44:48;;;;;;;4.57;2.22;;;;;;;9.64;100.00;101590.78;5074292;28;20448;-69
2022/09/25 04:47:13;;;;;;;4.35;2.47;;;;;;;9.56;100.00;101593.16;5056705;28;20048;-69
2022/09/25 04:49:38;;;;;;;8.90;2.53;;;;;;;9.52;100.00;101589.56;5073872;28;20310;-69
2022/09/25 04:52:05;;;;;;;7.43;2.60;;;;;;;9.53;100.00;101593.06;5074432;28;20028;-69
2022/09/25 04:54:30;;;;;;;5.95;2.90;;;;;;;9.56;100.00;101588.81;5072720;28;20036;-69
2022/09/25 04:56:56;;;;;;;8.57;2.38;;;;;;;9.54;100.00;101594.84;5074047;28;20027;-69
2022/09/25 04:59:22;;;;;;;6.10;2.40;;;;;;;9.59;100.00;101593.25;5074577;28;20031;-69
2022/09/25 05:01:47;;;;;;;3.33;2.40;;;;;;;9.57;100.00;101587.94;5073833;28;20453;-69
2022/09/25 05:04:14;;;;;;;8.93;2.70;;;;;;;9.59;100.00;101588.91;5071538;28;20024;-69
2022/09/25 05:06:40;;;;;;;3.65;2.28;;;;;;;9.61;100.00;101589.81;5071997;28;20067;-69
2022/09/25 05:09:05;;;;;;;4.05;2.47;;;;;;;9.66;100.00;101590.00;5074080;28;20056;-70
2022/09/25 05:11:31;;;;;;;6.32;2.33;;;;;;;9.69;100.00;101591.84;5073546;28;20117;-68
2022/09/25 05:13:56;;;;;;;6.18;3.35;;;;;;;9.76;100.00;101593.81;5073131;28;20063;-69
2022/09/25 05:16:22;;;;;;;6.18;2.58;;;;;;;9.75;100.00;101592.94;5072842;28;20847;-68
2022/09/25 05:18:47;;;;;;;5.15;2.78;;;;;;;9.77;100.00;101593.84;5073390;28;20028;-68
2022/09/25 05:21:13;;;;;;;7.75;2.88;;;;;;;9.80;100.00;101595.69;5073863;28;20020;-68
2022/09/25 05:23:38;;;;;;;5.50;2.58;;;;;;;9.88;100.00;101595.94;5071279;28;20067;-68
2022/09/25 05:26:03;;;;;;;2.83;2.20;;;;;;;9.86;100.00;101597.63;5073345;28;20035;-69
2022/09/25 05:28:30;;;;;;;2.90;1.95;;;;;;;9.83;100.00;101592.25;5073317;28;20025;-69
2022/09/25 05:31:01;;;;;;;4.25;2.10;;;;;;;9.81;100.00;101594.84;5073142;28;20024;-69
2022/09/25 05:33:27;;;;;;;5.15;1.73;;;;;;;9.81;100.00;101588.69;5072650;28;20025;-69
2022/09/25 05:35:52;;;;;;;7.25;2.60;;;;;;;9.79;100.00;101586.91;5072748;28;20422;-69
2022/09/25 05:38:18;;;;;;;6.50;2.47;;;;;;;9.77;100.00;101599.09;5072871;28;20028;-70
2022/09/25 05:40:43;;;;;;;6.93;2.47;;;;;;;9.79;100.00;101592.19;5072771;28;20032;-69
2022/09/25 05:43:08;;;;;;;5.63;2.80;;;;;;;9.82;100.00;101590.47;5071900;28;20068;-69
2022/09/25 05:45:34;;;;;;;4.78;2.20;;;;;;;9.78;100.00;101589.50;5072622;28;20032;-69
2022/09/25 05:48:02;;;;;;;4.30;2.75;;;;;;;9.81;100.00;101589.59;5072908;28;20058;-70
2022/09/25 05:50:28;;;;;;;6.68;2.45;;;;;;;9.82;100.00;101590.47;5072599;28;20115;-69
2022/09/25 05:53:01;;;;;;;4.85;2.67;;;;;;;9.85;100.00;101595.81;5072874;28;20131;-70
2022/09/25 05:55:27;;;;;;;7.20;2.97;;;;;;;9.92;100.00;101592.56;5072533;28;20025;-69
2022/09/25 05:57:52;;;;;;;8.35;3.10;;;;;;;10.02;100.00;101599.00;5073028;28;20027;-69
2022/09/25 06:00:18;;;;;;;8.65;3.42;;;;;;;10.11;100.00;101600.16;5072461;28;20024;-69
2022/09/25 06:02:43;;;;;;;4.43;2.45;;;;;;;10.15;100.00;101605.50;5068354;28;20060;-70
2022/09/25 06:05:09;;;;;;;6.57;2.50;;;;;;;10.20;100.00;101607.47;5070096;28;20069;-70
2022/09/25 06:07:35;;;;;;;7.20;2.38;;;;;;;10.21;100.00;101608.34;5071742;28;20059;-69
2022/09/25 06:10:01;;;;;;;15.48;2.60;;;;;;;10.26;100.00;101610.25;5072051;28;20020;-70
2022/09/25 06:12:30;;;;;;;4.68;1.90;;;;;;;10.33;100.00;101600.81;5071998;28;20025;-70
2022/09/25 06:14:55;;;;;;;6.15;2.13;;;;;;;10.40;100.00;101604.53;5071685;28;20426;-69
2022/09/25 06:17:21;;;;;;;3.80;1.92;;;;;;;10.46;100.00;101603.00;5072295;28;20090;-70
2022/09/25 06:19:46;;;;;;;11.57;2.08;;;;;;;10.53;100.00;101605.81;5072231;28;20028;-69
2022/09/25 06:22:12;;;;;;;2.50;1.88;;;;;;;10.58;100.00;101604.19;5071909;28;20016;-69
2022/09/25 06:24:38;;;;;;;5.63;2.20;;;;;;;10.63;100.00;101599.94;5071336;28;20052;-70
2022/09/25 06:27:05;;;;;;;6.53;2.20;;;;;;;10.66;100.00;101600.03;5053558;28;20111;-69
2022/09/25 06:29:30;;;;;;;5.63;2.50;;;;;;;10.69;100.00;101605.41;5071427;28;20387;-69
2022/09/25 06:31:56;;;;;;;2.78;1.77;;;;;;;10.74;100.00;101602.88;5071262;28;20119;-69
2022/09/25 06:34:21;;;;;;;5.78;1.95;;;;;;;10.78;100.00;101610.03;5070532;28;20044;-69
2022/09/25 06:36:47;;;;;;;5.22;1.98;;;;;;;10.83;100.00;101612.81;5071606;28;20451;-69
2022/09/25 06:39:12;;;;;;;4.25;1.77;;;;;;;10.85;100.00;101605.81;5070970;28;20033;-69
2022/09/25 06:41:38;;;;;;;2.72;1.67;;;;;;;10.90;100.00;101609.47;5072062;28;20028;-69
2022/09/25 06:44:04;;;;;;;2.70;2.40;;;;;;;10.94;100.00;101613.97;5071825;28;20166;-69
2022/09/25 06:46:29;;;;;;;4.63;1.83;;;;;;;10.98;100.00;101613.22;5067975;28;20043;-69
2022/09/25 06:48:56;;;;;;;3.00;1.40;;;;;;;11.02;100.00;101615.06;5072293;28;20448;-70
2022/09/25 06:51:24;;;;;;;6.13;1.77;;;;;;;11.07;100.00;101613.47;5072357;28;20376;-69
2022/09/25 06:53:53;;;;;;;2.33;1.73;;;;;;;11.12;100.00;101605.66;5071456;28;20027;-69
2022/09/25 06:56:19;;;;;;;6.93;1.83;;;;;;;11.17;100.00;101603.19;5067571;28;20029;-69
2022/09/25 06:58:44;;;;;;;9.05;2.10;;;;;;;11.23;100.00;101609.50;5070210;28;20099;-69
2022/09/25 07:01:10;;;;;;;5.35;1.80;;;;;;;11.29;100.00;101604.38;5069969;28;20123;-69
2022/09/25 07:03:46;;;;;;;7.80;2.28;;;;;;;11.33;100.00;101605.34;5071291;28;20032;-69
2022/09/25 07:06:20;;;;;;;3.85;2.10;;;;;;;11.39;100.00;101610.75;5070447;28;20016;-69
2022/09/25 07:08:46;;;;;;;6.35;2.08;;;;;;;11.46;100.00;101607.44;5070591;28;20021;-70
2022/09/25 07:11:14;;;;;;;3.85;1.70;;;;;;;11.53;100.00;101607.59;5071670;28;20048;-69
2022/09/25 07:13:40;;;;;;;8.20;1.67;;;;;;;11.60;100.00;101610.44;5070710;28;20047;-70
2022/09/25 07:16:10;;;;;;;7.15;1.95;;;;;;;11.66;100.00;101614.94;5067975;28;20035;-70
2022/09/25 07:18:35;;;;;;;7.28;2.00;;;;;;;11.72;100.00;101609.84;5067644;28;20036;-70
2022/09/25 07:21:04;;;;;;;6.68;1.55;;;;;;;11.80;100.00;101608.28;5071137;28;20020;-70
2022/09/25 07:23:30;;;;;;;7.75;1.83;;;;;;;11.87;100.00;101604.03;5065364;28;20044;-70
2022/09/25 07:25:57;;;;;;;10.45;2.10;;;;;;;11.97;100.00;101605.16;5071984;28;20025;-70
2022/09/25 07:28:23;;;;;;;10.13;1.92;;;;;;;12.03;100.00;101607.97;5078827;28;20031;-72
2022/09/25 07:30:48;;;;;;;14.02;2.03;;;;;;;12.11;100.00;101609.03;5072324;28;20025;-72
2022/09/25 07:33:15;;;;;;;5.10;1.60;;;;;;;12.19;100.00;101613.56;5068674;28;20016;-72
2022/09/25 07:35:40;;;;;;;7.35;1.45;;;;;;;12.26;100.00;101612.84;5069427;28;20036;-73
2022/09/25 07:38:06;;;;;;;4.03;1.63;;;;;;;12.35;100.00;101617.44;5070344;28;20021;-71
2022/09/25 07:40:32;;;;;;;3.85;1.38;;;;;;;12.40;100.00;101614.03;5069988;28;20357;-71
2022/09/25 07:43:01;;;;;;;7.13;1.40;;;;;;;12.51;100.00;101610.72;5070186;28;20081;-71
2022/09/25 07:45:28;;;;;;;7.35;1.52;;;;;;;12.47;100.00;101613.31;5070553;28;20025;-72
2022/09/25 07:47:57;;;;;;;4.75;1.40;;;;;;;12.57;100.00;101613.50;5068747;28;20570;-72
2022/09/25 07:50:23;;;;;;;7.30;1.98;;;;;;;12.65;100.00;101611.91;5069786;28;20376;-71
2022/09/25 07:52:48;;;;;;;8.55;1.30;;;;;;;12.70;100.00;101609.38;5068930;28;20017;-72
2022/09/25 07:55:14;;;;;;;4.00;0.93;;;;;;;12.76;100.00;101614.78;5069303;28;20464;-72
2022/09/25 07:57:41;;;;;;;5.50;1.33;;;;;;;12.82;100.00;101610.50;5068860;28;20037;-72
2022/09/25 08:00:08;;;;;;;5.05;1.15;;;;;;;12.89;100.00;101611.50;5069358;28;20023;-72
2022/09/25 08:02:34;;;;;;;2.78;1.02;;;;;;;12.94;100.00;101607.22;5069981;28;20024;-72
2022/09/25 08:05:00;;;;;;;5.68;1.13;;;;;;;13.01;100.00;101608.22;5064872;28;20490;-72
2022/09/25 08:07:27;;;;;;;3.00;0.80;;;;;;;13.13;100.00;101615.47;5069500;28;20111;-72
2022/09/25 08:09:53;;;;;;;3.83;1.27;;;;;;;13.29;100.00;101611.34;5069141;28;20022;-71
2022/09/25 08:12:19;;;;;;;4.22;1.27;;;;;;;13.38;100.00;101608.91;5053513;28;20024;-72
2022/09/25 08:14:44;;;;;;;12.70;2.78;;;;;;;13.47;100.00;101617.00;5059615;28;20025;-72
2022/09/25 08:17:10;;;;;;;7.53;0.98;;;;;;;13.58;100.00;101613.63;5059885;28;20029;-72
2022/09/25 08:19:35;;;;;;;5.50;1.60;;;;;;;13.71;100.00;101620.91;5059732;28;20515;-72
2022/09/25 08:22:01;;;;;;;16.42;1.48;;;;;;;13.77;100.00;101617.50;5059303;28;20021;-72
2022/09/25 08:24:26;;;;;;;3.85;0.73;;;;;;;13.82;100.00;101623.72;5062456;28;20033;-72
2022/09/25 08:26:51;;;;;;;4.80;1.05;;;;;;;13.85;100.00;101620.25;5055766;28;20024;-71
2022/09/25 08:29:17;;;;;;;5.93;1.23;;;;;;;13.91;100.00;101623.00;5061089;28;20064;-72
2022/09/25 08:31:42;;;;;;;4.75;0.82;;;;;;;13.95;100.00;101630.09;5060584;28;20033;-72
2022/09/25 08:34:09;;;;;;;3.42;0.63;;;;;;;14.03;100.00;101623.16;5059394;28;20105;-73
2022/09/25 08:36:35;;;;;;;3.22;0.88;;;;;;;14.09;100.00;101622.38;5059613;28;20159;-74
2022/09/25 08:39:00;;;;;;;10.60;0.90;;;;;;;14.15;100.00;101623.34;5058374;28;20443;-73
2022/09/25 08:41:30;;;;;;;3.17;0.88;;;;;;;14.18;100.00;101625.16;5053146;28;20033;-71
2022/09/25 08:44:13;;;;;;;2.97;1.00;;;;;;;14.26;100.00;101627.91;5061702;28;20107;-71
2022/09/25 08:49:34;;;;;;;7.85;1.10;;;;;;;14.39;100.00;101618.38;5058920;28;20040;-70
2022/09/25 08:52:04;;;;;;;3.38;0.80;;;;;;;14.47;100.00;101614.06;5059097;28;20079;-71
2022/09/25 08:54:33;;;;;;;2.55;0.70;;;;;;;14.49;100.00;101609.69;5049497;28;20384;-71
2022/09/25 08:57:13;;;;;;;1.27;0.82;;;;;;;14.57;100.00;101609.75;5053989;28;20037;-71
2022/09/25 08:59:46;;;;;;;5.93;1.00;;;;;;;14.56;100.00;101613.31;5053121;28;20040;-71
2022/09/25 09:02:15;;;;;;;4.23;1.20;;;;;;;14.59;100.00;101616.84;5053362;28;20542;-70
2022/09/25 09:04:46;;;;;;;6.25;0.90;;;;;;;14.61;100.00;101616.88;5055540;28;20275;-71
2022/09/25 09:07:17;;;;;;;3.65;0.80;;;;;;;14.68;100.00;101616.13;5054859;28;20036;-70
2022/09/25 09:10:01;;;;;;;4.60;0.63;;;;;;;14.80;100.00;101613.63;5052655;28;20078;-71
2022/09/25 09:12:43;;;;;;;5.13;1.33;;;;;;;14.90;100.00;101614.59;5070551;28;20040;-72
2022/09/25 09:15:54;;;;;;;1.88;0.70;;;;;;;15.10;100.00;101616.59;5072661;28;20123;-71
2022/09/25 09:18:25;;;;;;;4.53;0.90;;;;;;;15.29;100.00;101612.38;5071144;28;20110;-71
2022/09/25 09:20:56;;;;;;;10.13;1.10;;;;;;;15.40;100.00;101610.69;5073721;28;20460;-71
2022/09/25 09:23:30;;;;;;;7.63;0.88;;;;;;;15.60;100.00;101604.66;5071455;28;20044;-71
2022/09/25 09:26:03;;;;;;;6.03;1.13;;;;;;;15.79;100.00;101603.03;5054899;28;20043;-72
2022/09/25 09:28:56;;;;;;;12.32;1.52;;;;;;;15.88;100.00;101597.81;5062857;28;20040;-70
2022/09/25 09:31:44;;;;;;;4.20;1.02;;;;;;;16.02;100.00;101609.44;5073482;28;20406;-71
2022/09/25 09:34:44;;;;;;;0.82;0.50;;;;;;;16.27;100.00;101614.88;5072241;28;20032;-72
2022/09/25 09:37:14;;;;;;;2.25;0.75;;;;;;;16.58;100.00;101616.81;5073549;28;20036;-72
2022/09/25 09:40:06;;;;;;;2.92;0.77;;;;;;;16.82;100.00;101616.88;5073662;28;20043;-71
2022/09/25 09:42:52;;;;;;;5.00;0.70;;;;;;;16.97;100.00;101615.16;5070366;28;20039;-70
2022/09/25 09:45:33;;;;;;;5.05;1.00;;;;;;;16.58;100.00;101617.69;5071776;28;20041;-71
2022/09/25 09:48:07;;;;;;;8.63;0.73;;;;;;;17.27;100.00;101613.44;5053862;28;20107;-71
2022/09/25 09:50:40;;;;;;;3.13;0.80;;;;;;;17.83;100.00;101615.22;5071817;28;20059;-72
2022/09/25 09:53:18;;;;;;;5.68;1.00;;;;;;;18.28;100.00;101614.28;5073181;28;20147;-71
2022/09/25 09:55:52;;;;;;;6.35;1.13;;;;;;;18.59;91.89;101612.38;5072393;28;20396;-71
2022/09/25 09:58:28;;;;;;;6.47;0.82;;;;;;;18.75;90.56;101612.34;5073187;28;20020;-71
2022/09/25 10:00:54;;;;;;;6.97;1.13;;;;;;;18.62;89.68;101611.50;5072979;28;20043;-70
2022/09/25 10:03:24;;;;;;;5.22;1.13;;;;;;;18.29;89.94;101616.06;5067611;28;20020;-70
2022/09/25 10:05:55;;;;;;;4.47;0.80;;;;;;;17.84;89.53;101610.81;5072405;28;20055;-70
2022/09/25 10:08:20;;;;;;;7.18;1.08;;;;;;;17.37;91.70;101609.91;5072598;28;20174;-70
2022/09/25 10:10:52;;;;;;;1.95;0.70;;;;;;;16.88;94.25;101609.81;5064524;28;20044;-70
2022/09/25 10:13:22;;;;;;;3.83;0.90;;;;;;;16.67;100.00;101606.19;5058091;28;20035;-71
2022/09/25 10:16:15;;;;;;;3.00;0.80;;;;;;;16.33;100.00;101611.34;5052660;28;20049;-70
2022/09/25 10:18:46;;;;;;;4.68;0.88;;;;;;;16.02;99.97;101609.44;5052158;28;20445;-70
2022/09/25 10:21:18;;;;;;;8.50;0.90;;;;;;;15.77;98.63;101607.44;5050129;28;20413;-70
2022/09/25 10:23:50;;;;;;;6.40;0.77;;;;;;;15.65;100.00;101605.59;5035573;28;20074;-69
2022/09/25 10:26:37;;;;;;;2.47;0.60;;;;;;;15.50;100.00;101607.25;5055193;28;20031;-68
2022/09/25 10:29:23;;;;;;;1.73;0.82;;;;;;;15.35;100.00;101609.75;5049061;28;20028;-71
2022/09/25 10:31:59;;;;;;;3.70;0.70;;;;;;;15.30;100.00;101604.41;5047115;28;20115;-69
2022/09/25 10:34:28;;;;;;;2.33;0.60;;;;;;;15.32;100.00;101604.44;5046513;28;20021;-69
2022/09/25 10:36:54;;;;;;;3.33;0.50;;;;;;;15.30;100.00;101604.41;5044771;28;20032;-68
2022/09/25 10:39:28;;;;;;;3.90;0.55;;;;;;;15.34;100.00;101600.91;5047020;28;20071;-68
2022/09/25 10:41:54;;;;;;;7.40;0.70;;;;;;;15.34;100.00;101600.00;5050634;28;20483;-68
2022/09/25 10:44:34;;;;;;;1.10;0.32;;;;;;;15.26;100.00;101607.91;5045819;28;20026;-67
2022/09/25 10:50:19;;;;;;;9.10;0.60;;;;;;;15.20;100.00;101596.38;5051088;28;20039;-67
2022/09/25 10:52:54;;;;;;;5.53;0.57;;;;;;;15.20;100.00;101593.72;5049449;28;20492;-67
2022/09/25 10:55:26;;;;;;;3.58;0.80;;;;;;;15.21;100.00;101587.53;5050641;28;20385;-68
2022/09/25 10:58:08;;;;;;;2.33;0.95;;;;;;;15.28;100.00;101589.38;5051837;28;20028;-66
2022/09/25 11:00:45;;;;;;;4.30;0.60;;;;;;;15.31;99.18;101584.09;5051057;28;20028;-69
2022/09/25 11:03:43;;;;;;;2.75;0.40;;;;;;;15.46;100.00;101593.94;5045005;28;20025;-67
2022/09/25 11:06:19;;;;;;;2.35;0.45;;;;;;;15.47;100.00;101593.06;4992307;28;20075;-68
2022/09/25 11:08:48;;;;;;;2.65;0.63;;;;;;;15.56;100.00;101593.16;5050960;28;20411;-68
2022/09/25 11:11:25;;;;;;;0.77;0.50;;;;;;;15.68;100.00;101579.06;5049869;28;20045;-68
2022/09/25 11:13:54;;;;;;;2.80;0.50;;;;;;;15.85;100.00;101577.44;5050306;28;20480;-68
2022/09/25 11:16:20;;;;;;;2.47;0.60;;;;;;;16.11;100.00;101579.38;5050965;28;20108;-67
2022/09/25 11:18:50;;;;;;;3.22;0.60;;;;;;;16.44;100.00;101577.78;5052226;28;20056;-68
2022/09/25 11:21:24;;;;;;;4.10;0.80;;;;;;;16.72;100.00;101572.53;5054360;28;20032;-67
2022/09/25 11:24:02;;;;;;;3.67;0.55;;;;;;;17.06;100.00;101567.31;5050480;28;20228;-68
2022/09/25 11:26:35;;;;;;;2.58;0.30;;;;;;;17.46;100.00;101567.34;5051565;28;20448;-67
2022/09/25 11:29:14;;;;;;;5.00;1.48;;;;;;;17.96;94.74;101564.66;5050736;28;20020;-67
2022/09/25 11:31:50;;;;;;;1.17;0.47;;;;;;;18.42;89.04;101566.28;5050481;28;20040;-68
2022/09/25 11:34:26;;;;;;;3.67;0.52;;;;;;;18.68;85.99;101563.50;5052133;28;20021;-66
2022/09/25 11:37:02;;;;;;;1.95;0.43;;;;;;;18.75;75.55;101559.88;5052117;28;20029;-67
2022/09/25 11:43:08;;;;;;;2.38;0.50;;;;;;;19.61;71.12;101553.00;5021088;28;20040;-68
2022/09/25 11:45:46;;;;;;;2.30;0.45;;;;;;;20.04;67.63;101562.41;5050629;28;20025;-69
2022/09/25 11:48:22;;;;;;;3.10;0.50;;;;;;;20.49;63.48;101560.06;5053801;28;20032;-66
2022/09/25 11:50:57;;;;;;;2.58;0.40;;;;;;;20.94;63.62;101550.56;5055698;28;20027;-66